sensor_id;sensor_type;location;lat;lon;timestamp;P1;durP1;ratioP1;P2;durP2;ratioP2
77022;SDS011;65952;51.440;-2.054;2024-03-29T00:02:12;8.48;;;2.13;;
77022;SDS011;65952;51.440;-2.054;2024-03-29T00:04:40;6.82;;;2.00;;
77022;SDS011;65952;51.440;-2.054;2024-03-29T00:07:06;5.63;;;2.00;;
77022;SDS011;65952;51.440;-2.054;2024-03-29T00:09:32;3.17;;;1.75;;
77022;SDS011;65952;51.440;-2.054;2024-03-29T00:11:57;5.18;;;1.90;;
77022;SDS011;65952;51.440;-2.054;2024-03-29T00:14:22;3.35;;;1.73;;
77022;SDS011;65952;51.440;-2.054;2024-03-29T00:16:48;6.00;;;2.15;;
77022;SDS011;65952;51.440;-2.054;2024-03-29T00:19:13;3.40;;;1.70;;
77022;SDS011;65952;51.440;-2.054;2024-03-29T00:26:43;5.03;;;1.67;;
77022;SDS011;65952;51.440;-2.054;2024-03-29T00:29:09;3.58;;;1.80;;
77022;SDS011;65952;51.440;-2.054;2024-03-29T00:31:34;4.45;;;1.70;;
77022;SDS011;65952;51.440;-2.054;2024-03-29T00:34:00;4.65;;;1.98;;
77022;SDS011;65952;51.440;-2.054;2024-03-29T00:36:25;6.18;;;2.03;;
77022;SDS011;65952;51.440;-2.054;2024-03-29T00:38:51;5.35;;;1.67;;
77022;SDS011;65952;51.440;-2.054;2024-03-29T00:41:16;4.20;;;1.80;;
77022;SDS011;65952;51.440;-2.054;2024-03-29T00:43:42;3.38;;;1.90;;
77022;SDS011;65952;51.440;-2.054;2024-03-29T00:46:08;3.97;;;1.88;;
77022;SDS011;65952;51.440;-2.054;2024-03-29T00:51:33;4.05;;;1.80;;
77022;SDS011;65952;51.440;-2.054;2024-03-29T00:53:59;6.13;;;2.00;;
77022;SDS011;65952;51.440;-2.054;2024-03-29T01:02:28;4.90;;;2.10;;
77022;SDS011;65952;51.440;-2.054;2024-03-29T01:04:54;7.63;;;2.13;;
77022;SDS011;65952;51.440;-2.054;2024-03-29T01:07:32;6.95;;;2.40;;
77022;SDS011;65952;51.440;-2.054;2024-03-29T01:09:56;7.80;;;2.20;;
77022;SDS011;65952;51.440;-2.054;2024-03-29T01:12:22;4.63;;;2.00;;
77022;SDS011;65952;51.440;-2.054;2024-03-29T01:14:48;12.52;;;2.72;;
77022;SDS011;65952;51.440;-2.054;2024-03-29T01:24:23;11.90;;;2.45;;
77022;SDS011;65952;51.440;-2.054;2024-03-29T01:26:49;6.55;;;2.33;;
77022;SDS011;65952;51.440;-2.054;2024-03-29T01:29:15;6.43;;;2.17;;
77022;SDS011;65952;51.440;-2.054;2024-03-29T01:31:40;6.03;;;2.38;;
77022;SDS011;65952;51.440;-2.054;2024-03-29T01:34:06;7.85;;;2.35;;
77022;SDS011;65952;51.440;-2.054;2024-03-29T01:36:32;7.07;;;2.58;;
77022;SDS011;65952;51.440;-2.054;2024-03-29T01:45:55;5.53;;;2.30;;
77022;SDS011;65952;51.440;-2.054;2024-03-29T01:51:17;4.63;;;2.10;;
77022;SDS011;65952;51.440;-2.054;2024-03-29T01:53:43;9.40;;;2.50;;
77022;SDS011;65952;51.440;-2.054;2024-03-29T01:56:09;7.18;;;2.00;;
77022;SDS011;65952;51.440;-2.054;2024-03-29T01:58:36;7.53;;;2.40;;
77022;SDS011;65952;51.440;-2.054;2024-03-29T02:01:03;5.28;;;2.20;;
77022;SDS011;65952;51.440;-2.054;2024-03-29T02:06:52;4.30;;;1.90;;
77022;SDS011;65952;51.440;-2.054;2024-03-29T02:09:18;7.10;;;1.98;;
77022;SDS011;65952;51.440;-2.054;2024-03-29T02:11:43;7.40;;;2.33;;
77022;SDS011;65952;51.440;-2.054;2024-03-29T02:14:09;6.78;;;2.30;;
77022;SDS011;65952;51.440;-2.054;2024-03-29T02:16:34;6.40;;;2.20;;
77022;SDS011;65952;51.440;-2.054;2024-03-29T02:22:22;6.50;;;2.10;;
77022;SDS011;65952;51.440;-2.054;2024-03-29T02:24:49;6.65;;;1.98;;
77022;SDS011;65952;51.440;-2.054;2024-03-29T02:27:16;8.20;;;2.17;;
77022;SDS011;65952;51.440;-2.054;2024-03-29T02:29:41;4.13;;;1.90;;
77022;SDS011;65952;51.440;-2.054;2024-03-29T02:32:07;9.27;;;2.10;;
77022;SDS011;65952;51.440;-2.054;2024-03-29T02:34:32;7.32;;;2.13;;
77022;SDS011;65952;51.440;-2.054;2024-03-29T02:36:58;5.75;;;2.17;;
77022;SDS011;65952;51.440;-2.054;2024-03-29T02:39:24;5.88;;;2.17;;
77022;SDS011;65952;51.440;-2.054;2024-03-29T02:41:49;7.07;;;1.90;;
77022;SDS011;65952;51.440;-2.054;2024-03-29T02:44:18;7.57;;;2.20;;
77022;SDS011;65952;51.440;-2.054;2024-03-29T02:46:43;5.68;;;1.85;;
77022;SDS011;65952;51.440;-2.054;2024-03-29T02:49:09;5.43;;;1.95;;
77022;SDS011;65952;51.440;-2.054;2024-03-29T02:51:35;5.63;;;2.35;;
77022;SDS011;65952;51.440;-2.054;2024-03-29T02:54:01;6.90;;;2.00;;
77022;SDS011;65952;51.440;-2.054;2024-03-29T02:56:37;5.63;;;2.10;;
77022;SDS011;65952;51.440;-2.054;2024-03-29T02:59:03;8.40;;;2.10;;
77022;SDS011;65952;51.440;-2.054;2024-03-29T03:01:28;6.90;;;2.10;;
77022;SDS011;65952;51.440;-2.054;2024-03-29T03:03:53;4.60;;;2.10;;
77022;SDS011;65952;51.440;-2.054;2024-03-29T03:06:19;7.38;;;2.47;;
77022;SDS011;65952;51.440;-2.054;2024-03-29T03:08:44;9.80;;;3.45;;
77022;SDS011;65952;51.440;-2.054;2024-03-29T03:11:28;6.65;;;1.98;;
77022;SDS011;65952;51.440;-2.054;2024-03-29T03:13:54;6.70;;;2.15;;
77022;SDS011;65952;51.440;-2.054;2024-03-29T03:16:19;8.80;;;2.30;;
77022;SDS011;65952;51.440;-2.054;2024-03-29T03:18:45;4.38;;;2.20;;
77022;SDS011;65952;51.440;-2.054;2024-03-29T03:21:10;8.00;;;2.25;;
77022;SDS011;65952;51.440;-2.054;2024-03-29T03:23:36;9.25;;;2.20;;
77022;SDS011;65952;51.440;-2.054;2024-03-29T03:29:16;6.78;;;2.10;;
77022;SDS011;65952;51.440;-2.054;2024-03-29T03:31:42;4.38;;;1.73;;
77022;SDS011;65952;51.440;-2.054;2024-03-29T03:40:04;6.07;;;1.90;;
77022;SDS011;65952;51.440;-2.054;2024-03-29T03:42:31;6.85;;;1.90;;
77022;SDS011;65952;51.440;-2.054;2024-03-29T03:44:57;4.75;;;1.83;;
77022;SDS011;65952;51.440;-2.054;2024-03-29T03:47:22;6.45;;;1.90;;
77022;SDS011;65952;51.440;-2.054;2024-03-29T03:49:48;10.15;;;2.17;;
77022;SDS011;65952;51.440;-2.054;2024-03-29T03:52:15;6.15;;;1.98;;
77022;SDS011;65952;51.440;-2.054;2024-03-29T03:54:41;5.88;;;1.98;;
77022;SDS011;65952;51.440;-2.054;2024-03-29T03:57:06;4.15;;;1.80;;
77022;SDS011;65952;51.440;-2.054;2024-03-29T03:59:31;7.00;;;1.92;;
77022;SDS011;65952;51.440;-2.054;2024-03-29T04:01:57;5.22;;;1.58;;
77022;SDS011;65952;51.440;-2.054;2024-03-29T04:04:23;5.10;;;1.80;;
77022;SDS011;65952;51.440;-2.054;2024-03-29T04:06:48;4.00;;;2.17;;
77022;SDS011;65952;51.440;-2.054;2024-03-29T04:09:14;4.32;;;1.80;;
77022;SDS011;65952;51.440;-2.054;2024-03-29T04:11:43;2.67;;;1.40;;
77022;SDS011;65952;51.440;-2.054;2024-03-29T04:14:08;9.45;;;2.80;;
77022;SDS011;65952;51.440;-2.054;2024-03-29T04:16:34;5.57;;;1.65;;
77022;SDS011;65952;51.440;-2.054;2024-03-29T04:19:00;5.43;;;2.03;;
77022;SDS011;65952;51.440;-2.054;2024-03-29T04:24:09;5.50;;;1.73;;
77022;SDS011;65952;51.440;-2.054;2024-03-29T04:26:35;4.47;;;1.90;;
77022;SDS011;65952;51.440;-2.054;2024-03-29T04:29:02;5.38;;;1.60;;
77022;SDS011;65952;51.440;-2.054;2024-03-29T04:31:27;6.57;;;2.40;;
77022;SDS011;65952;51.440;-2.054;2024-03-29T04:33:53;4.70;;;2.00;;
77022;SDS011;65952;51.440;-2.054;2024-03-29T04:36:18;6.25;;;1.88;;
77022;SDS011;65952;51.440;-2.054;2024-03-29T04:38:44;4.80;;;1.73;;
77022;SDS011;65952;51.440;-2.054;2024-03-29T04:41:09;5.78;;;1.77;;
77022;SDS011;65952;51.440;-2.054;2024-03-29T04:43:35;4.80;;;1.63;;
77022;SDS011;65952;51.440;-2.054;2024-03-29T04:46:10;5.47;;;1.63;;
77022;SDS011;65952;51.440;-2.054;2024-03-29T04:48:37;4.30;;;1.73;;
77022;SDS011;65952;51.440;-2.054;2024-03-29T04:51:03;4.35;;;1.60;;
77022;SDS011;65952;51.440;-2.054;2024-03-29T04:53:29;5.60;;;1.83;;
77022;SDS011;65952;51.440;-2.054;2024-03-29T04:55:56;5.03;;;1.80;;
77022;SDS011;65952;51.440;-2.054;2024-03-29T04:58:22;8.90;;;2.10;;
77022;SDS011;65952;51.440;-2.054;2024-03-29T05:00:51;6.85;;;2.17;;
77022;SDS011;65952;51.440;-2.054;2024-03-29T05:03:17;5.93;;;1.75;;
77022;SDS011;65952;51.440;-2.054;2024-03-29T05:05:44;9.60;;;2.55;;
77022;SDS011;65952;51.440;-2.054;2024-03-29T05:08:10;4.78;;;1.90;;
77022;SDS011;65952;51.440;-2.054;2024-03-29T05:10:36;6.90;;;1.98;;
77022;SDS011;65952;51.440;-2.054;2024-03-29T05:13:02;5.20;;;1.90;;
77022;SDS011;65952;51.440;-2.054;2024-03-29T05:15:28;7.35;;;1.88;;
77022;SDS011;65952;51.440;-2.054;2024-03-29T05:17:54;5.85;;;2.28;;
77022;SDS011;65952;51.440;-2.054;2024-03-29T05:20:19;7.30;;;2.65;;
77022;SDS011;65952;51.440;-2.054;2024-03-29T05:22:45;7.55;;;2.10;;
77022;SDS011;65952;51.440;-2.054;2024-03-29T05:25:10;6.00;;;2.20;;
77022;SDS011;65952;51.440;-2.054;2024-03-29T05:27:36;7.72;;;2.10;;
77022;SDS011;65952;51.440;-2.054;2024-03-29T05:30:02;14.38;;;2.60;;
77022;SDS011;65952;51.440;-2.054;2024-03-29T05:37:38;8.95;;;2.72;;
77022;SDS011;65952;51.440;-2.054;2024-03-29T05:40:04;9.02;;;2.45;;
77022;SDS011;65952;51.440;-2.054;2024-03-29T05:42:31;8.90;;;2.60;;
77022;SDS011;65952;51.440;-2.054;2024-03-29T05:51:51;11.60;;;2.90;;
77022;SDS011;65952;51.440;-2.054;2024-03-29T05:54:17;11.45;;;2.88;;
77022;SDS011;65952;51.440;-2.054;2024-03-29T05:56:42;12.82;;;2.92;;
77022;SDS011;65952;51.440;-2.054;2024-03-29T05:59:08;8.13;;;2.65;;
77022;SDS011;65952;51.440;-2.054;2024-03-29T06:01:33;8.93;;;2.67;;
77022;SDS011;65952;51.440;-2.054;2024-03-29T06:03:58;11.10;;;2.70;;
77022;SDS011;65952;51.440;-2.054;2024-03-29T06:06:29;14.00;;;3.42;;
77022;SDS011;65952;51.440;-2.054;2024-03-29T06:15:00;12.13;;;2.90;;
77022;SDS011;65952;51.440;-2.054;2024-03-29T06:21:06;11.73;;;3.13;;
77022;SDS011;65952;51.440;-2.054;2024-03-29T06:26:15;9.80;;;2.78;;
77022;SDS011;65952;51.440;-2.054;2024-03-29T06:28:41;7.22;;;2.55;;
77022;SDS011;65952;51.440;-2.054;2024-03-29T06:31:06;12.75;;;2.75;;
77022;SDS011;65952;51.440;-2.054;2024-03-29T06:33:31;12.07;;;3.20;;
77022;SDS011;65952;51.440;-2.054;2024-03-29T06:35:57;6.05;;;2.35;;
77022;SDS011;65952;51.440;-2.054;2024-03-29T06:38:22;11.23;;;2.60;;
77022;SDS011;65952;51.440;-2.054;2024-03-29T06:40:48;11.68;;;2.97;;
77022;SDS011;65952;51.440;-2.054;2024-03-29T06:43:13;8.10;;;2.90;;
77022;SDS011;65952;51.440;-2.054;2024-03-29T06:45:39;11.77;;;2.53;;
77022;SDS011;65952;51.440;-2.054;2024-03-29T06:48:07;6.90;;;2.97;;
77022;SDS011;65952;51.440;-2.054;2024-03-29T06:50:33;12.95;;;2.80;;
77022;SDS011;65952;51.440;-2.054;2024-03-29T06:52:59;12.38;;;2.63;;
77022;SDS011;65952;51.440;-2.054;2024-03-29T06:55:25;7.50;;;2.45;;
77022;SDS011;65952;51.440;-2.054;2024-03-29T06:57:50;12.05;;;2.55;;
77022;SDS011;65952;51.440;-2.054;2024-03-29T07:00:16;8.75;;;2.83;;
77022;SDS011;65952;51.440;-2.054;2024-03-29T07:02:42;10.95;;;2.83;;
77022;SDS011;65952;51.440;-2.054;2024-03-29T07:05:08;11.90;;;2.60;;
77022;SDS011;65952;51.440;-2.054;2024-03-29T07:07:36;9.60;;;2.72;;
77022;SDS011;65952;51.440;-2.054;2024-03-29T07:10:02;10.68;;;2.60;;
77022;SDS011;65952;51.440;-2.054;2024-03-29T07:12:27;12.90;;;3.15;;
77022;SDS011;65952;51.440;-2.054;2024-03-29T07:14:53;9.38;;;2.47;;
77022;SDS011;65952;51.440;-2.054;2024-03-29T07:17:18;9.65;;;3.45;;
77022;SDS011;65952;51.440;-2.054;2024-03-29T07:19:44;8.30;;;2.63;;
77022;SDS011;65952;51.440;-2.054;2024-03-29T07:25:19;10.40;;;2.40;;
77022;SDS011;65952;51.440;-2.054;2024-03-29T07:27:45;9.80;;;2.58;;
77022;SDS011;65952;51.440;-2.054;2024-03-29T07:30:10;7.20;;;2.45;;
77022;SDS011;65952;51.440;-2.054;2024-03-29T07:32:36;6.82;;;2.33;;
77022;SDS011;65952;51.440;-2.054;2024-03-29T07:35:03;10.15;;;2.80;;
77022;SDS011;65952;51.440;-2.054;2024-03-29T07:37:28;8.80;;;2.30;;
77022;SDS011;65952;51.440;-2.054;2024-03-29T07:39:54;10.68;;;2.70;;
77022;SDS011;65952;51.440;-2.054;2024-03-29T07:42:20;10.70;;;2.72;;
77022;SDS011;65952;51.440;-2.054;2024-03-29T07:44:45;6.97;;;2.38;;
77022;SDS011;65952;51.440;-2.054;2024-03-29T07:47:11;4.82;;;2.20;;
77022;SDS011;65952;51.440;-2.054;2024-03-29T07:49:39;7.45;;;2.60;;
77022;SDS011;65952;51.440;-2.054;2024-03-29T07:52:44;5.13;;;2.45;;
77022;SDS011;65952;51.440;-2.054;2024-03-29T07:55:21;9.02;;;2.78;;
77022;SDS011;65952;51.440;-2.054;2024-03-29T07:57:55;7.03;;;2.30;;
77022;SDS011;65952;51.440;-2.054;2024-03-29T08:00:21;5.53;;;2.22;;
77022;SDS011;65952;51.440;-2.054;2024-03-29T08:02:56;7.00;;;2.42;;
77022;SDS011;65952;51.440;-2.054;2024-03-29T08:08:44;4.07;;;2.10;;
77022;SDS011;65952;51.440;-2.054;2024-03-29T08:11:10;5.40;;;2.10;;
77022;SDS011;65952;51.440;-2.054;2024-03-29T08:13:36;8.95;;;2.33;;
77022;SDS011;65952;51.440;-2.054;2024-03-29T08:16:15;6.57;;;2.10;;
77022;SDS011;65952;51.440;-2.054;2024-03-29T08:18:42;6.97;;;2.22;;
77022;SDS011;65952;51.440;-2.054;2024-03-29T08:21:10;6.28;;;2.20;;
77022;SDS011;65952;51.440;-2.054;2024-03-29T08:23:40;7.00;;;2.20;;
77022;SDS011;65952;51.440;-2.054;2024-03-29T08:26:06;7.80;;;2.28;;
77022;SDS011;65952;51.440;-2.054;2024-03-29T08:28:32;7.05;;;2.53;;
77022;SDS011;65952;51.440;-2.054;2024-03-29T08:31:01;11.63;;;2.53;;
77022;SDS011;65952;51.440;-2.054;2024-03-29T08:33:34;9.10;;;2.50;;
77022;SDS011;65952;51.440;-2.054;2024-03-29T08:36:03;8.85;;;2.47;;
77022;SDS011;65952;51.440;-2.054;2024-03-29T08:38:33;8.07;;;2.30;;
77022;SDS011;65952;51.440;-2.054;2024-03-29T08:40:59;4.70;;;2.35;;
77022;SDS011;65952;51.440;-2.054;2024-03-29T08:43:25;9.93;;;2.50;;
77022;SDS011;65952;51.440;-2.054;2024-03-29T08:45:51;7.93;;;2.38;;
77022;SDS011;65952;51.440;-2.054;2024-03-29T08:48:17;7.45;;;2.60;;
77022;SDS011;65952;51.440;-2.054;2024-03-29T08:50:43;8.70;;;2.30;;
77022;SDS011;65952;51.440;-2.054;2024-03-29T08:53:08;9.80;;;2.83;;
77022;SDS011;65952;51.440;-2.054;2024-03-29T08:55:34;8.00;;;2.58;;
77022;SDS011;65952;51.440;-2.054;2024-03-29T08:58:14;8.05;;;2.33;;
77022;SDS011;65952;51.440;-2.054;2024-03-29T09:00:52;4.60;;;2.20;;
77022;SDS011;65952;51.440;-2.054;2024-03-29T09:03:20;5.63;;;2.37;;
77022;SDS011;65952;51.440;-2.054;2024-03-29T09:05:46;6.32;;;2.28;;
77022;SDS011;65952;51.440;-2.054;2024-03-29T09:08:11;10.20;;;2.58;;
77022;SDS011;65952;51.440;-2.054;2024-03-29T09:10:37;6.35;;;2.20;;
77022;SDS011;65952;51.440;-2.054;2024-03-29T09:13:02;5.15;;;2.42;;
77022;SDS011;65952;51.440;-2.054;2024-03-29T09:15:28;6.60;;;2.40;;
77022;SDS011;65952;51.440;-2.054;2024-03-29T09:17:53;5.50;;;2.20;;
77022;SDS011;65952;51.440;-2.054;2024-03-29T09:20:20;8.50;;;2.47;;
77022;SDS011;65952;51.440;-2.054;2024-03-29T09:25:21;6.93;;;2.28;;
77022;SDS011;65952;51.440;-2.054;2024-03-29T09:27:46;10.25;;;2.40;;
77022;SDS011;65952;51.440;-2.054;2024-03-29T09:30:13;6.45;;;2.20;;
77022;SDS011;65952;51.440;-2.054;2024-03-29T09:32:40;5.22;;;2.25;;
77022;SDS011;65952;51.440;-2.054;2024-03-29T09:35:06;7.15;;;2.30;;
77022;SDS011;65952;51.440;-2.054;2024-03-29T09:37:32;6.97;;;2.33;;
77022;SDS011;65952;51.440;-2.054;2024-03-29T09:40:02;5.25;;;2.08;;
77022;SDS011;65952;51.440;-2.054;2024-03-29T09:42:29;7.30;;;2.10;;
77022;SDS011;65952;51.440;-2.054;2024-03-29T09:44:57;7.47;;;2.33;;
77022;SDS011;65952;51.440;-2.054;2024-03-29T09:47:24;6.07;;;2.10;;
77022;SDS011;65952;51.440;-2.054;2024-03-29T09:49:52;8.07;;;2.85;;
77022;SDS011;65952;51.440;-2.054;2024-03-29T09:52:20;7.80;;;2.40;;
77022;SDS011;65952;51.440;-2.054;2024-03-29T09:54:45;4.45;;;2.10;;
77022;SDS011;65952;51.440;-2.054;2024-03-29T09:59:46;7.35;;;2.20;;
77022;SDS011;65952;51.440;-2.054;2024-03-29T10:02:15;8.00;;;2.40;;
77022;SDS011;65952;51.440;-2.054;2024-03-29T10:04:42;6.95;;;2.25;;
77022;SDS011;65952;51.440;-2.054;2024-03-29T10:07:10;5.85;;;2.25;;
77022;SDS011;65952;51.440;-2.054;2024-03-29T10:09:37;7.13;;;2.40;;
77022;SDS011;65952;51.440;-2.054;2024-03-29T10:12:04;12.90;;;3.00;;
77022;SDS011;65952;51.440;-2.054;2024-03-29T10:14:30;9.48;;;2.83;;
77022;SDS011;65952;51.440;-2.054;2024-03-29T10:16:57;7.15;;;2.95;;
77022;SDS011;65952;51.440;-2.054;2024-03-29T10:19:23;11.32;;;2.90;;
77022;SDS011;65952;51.440;-2.054;2024-03-29T10:21:48;7.50;;;2.70;;
77022;SDS011;65952;51.440;-2.054;2024-03-29T10:24:14;6.50;;;3.00;;
77022;SDS011;65952;51.440;-2.054;2024-03-29T10:26:40;6.70;;;2.50;;
77022;SDS011;65952;51.440;-2.054;2024-03-29T10:29:07;7.53;;;2.42;;
77022;SDS011;65952;51.440;-2.054;2024-03-29T10:31:36;7.50;;;2.42;;
77022;SDS011;65952;51.440;-2.054;2024-03-29T10:34:02;5.40;;;2.00;;
77022;SDS011;65952;51.440;-2.054;2024-03-29T10:36:30;6.55;;;2.10;;
77022;SDS011;65952;51.440;-2.054;2024-03-29T10:39:00;7.75;;;2.60;;
77022;SDS011;65952;51.440;-2.054;2024-03-29T10:41:36;7.47;;;2.00;;
77022;SDS011;65952;51.440;-2.054;2024-03-29T10:44:08;4.85;;;2.00;;
77022;SDS011;65952;51.440;-2.054;2024-03-29T10:46:36;4.40;;;2.22;;
77022;SDS011;65952;51.440;-2.054;2024-03-29T10:49:02;5.82;;;1.98;;
77022;SDS011;65952;51.440;-2.054;2024-03-29T10:51:28;5.95;;;2.00;;
77022;SDS011;65952;51.440;-2.054;2024-03-29T10:53:55;4.72;;;1.88;;
77022;SDS011;65952;51.440;-2.054;2024-03-29T10:56:22;6.90;;;1.80;;
77022;SDS011;65952;51.440;-2.054;2024-03-29T10:58:50;5.40;;;1.83;;
77022;SDS011;65952;51.440;-2.054;2024-03-29T11:04:12;5.30;;;1.60;;
77022;SDS011;65952;51.440;-2.054;2024-03-29T11:06:51;3.88;;;1.75;;
77022;SDS011;65952;51.440;-2.054;2024-03-29T11:09:19;5.28;;;1.70;;
77022;SDS011;65952;51.440;-2.054;2024-03-29T11:11:48;5.57;;;2.30;;
77022;SDS011;65952;51.440;-2.054;2024-03-29T11:14:18;4.93;;;1.75;;
77022;SDS011;65952;51.440;-2.054;2024-03-29T11:16:49;6.38;;;2.03;;
77022;SDS011;65952;51.440;-2.054;2024-03-29T11:19:20;6.82;;;2.10;;
77022;SDS011;65952;51.440;-2.054;2024-03-29T11:21:45;8.35;;;3.03;;
77022;SDS011;65952;51.440;-2.054;2024-03-29T11:24:13;6.32;;;1.90;;
77022;SDS011;65952;51.440;-2.054;2024-03-29T11:26:41;7.10;;;2.10;;
77022;SDS011;65952;51.440;-2.054;2024-03-29T11:29:17;6.57;;;2.28;;
77022;SDS011;65952;51.440;-2.054;2024-03-29T11:31:44;9.52;;;2.30;;
77022;SDS011;65952;51.440;-2.054;2024-03-29T11:34:10;5.30;;;2.17;;
77022;SDS011;65952;51.440;-2.054;2024-03-29T11:36:38;6.90;;;2.00;;
77022;SDS011;65952;51.440;-2.054;2024-03-29T11:39:05;4.20;;;1.90;;
77022;SDS011;65952;51.440;-2.054;2024-03-29T11:41:30;5.53;;;2.08;;
77022;SDS011;65952;51.440;-2.054;2024-03-29T11:43:57;5.28;;;2.00;;
77022;SDS011;65952;51.440;-2.054;2024-03-29T11:46:23;7.00;;;2.13;;
77022;SDS011;65952;51.440;-2.054;2024-03-29T11:48:50;6.43;;;1.95;;
77022;SDS011;65952;51.440;-2.054;2024-03-29T11:51:18;3.60;;;1.60;;
77022;SDS011;65952;51.440;-2.054;2024-03-29T11:53:47;7.13;;;2.10;;
77022;SDS011;65952;51.440;-2.054;2024-03-29T11:56:13;4.00;;;1.67;;
77022;SDS011;65952;51.440;-2.054;2024-03-29T11:58:39;3.60;;;1.60;;
77022;SDS011;65952;51.440;-2.054;2024-03-29T12:01:05;4.72;;;1.65;;
77022;SDS011;65952;51.440;-2.054;2024-03-29T12:03:31;4.32;;;1.70;;
77022;SDS011;65952;51.440;-2.054;2024-03-29T12:06:01;3.63;;;1.50;;
77022;SDS011;65952;51.440;-2.054;2024-03-29T12:08:31;4.78;;;2.00;;
77022;SDS011;65952;51.440;-2.054;2024-03-29T12:10:58;2.85;;;1.60;;
77022;SDS011;65952;51.440;-2.054;2024-03-29T12:13:24;4.15;;;1.50;;
77022;SDS011;65952;51.440;-2.054;2024-03-29T12:15:49;4.55;;;1.80;;
77022;SDS011;65952;51.440;-2.054;2024-03-29T12:18:15;4.15;;;1.67;;
77022;SDS011;65952;51.440;-2.054;2024-03-29T12:20:41;5.18;;;1.80;;
77022;SDS011;65952;51.440;-2.054;2024-03-29T12:23:11;4.20;;;1.80;;
77022;SDS011;65952;51.440;-2.054;2024-03-29T12:25:38;4.97;;;1.80;;
77022;SDS011;65952;51.440;-2.054;2024-03-29T12:28:04;4.47;;;1.77;;
77022;SDS011;65952;51.440;-2.054;2024-03-29T12:30:31;3.80;;;1.90;;
77022;SDS011;65952;51.440;-2.054;2024-03-29T12:33:07;3.92;;;1.80;;
77022;SDS011;65952;51.440;-2.054;2024-03-29T12:35:36;7.07;;;2.00;;
77022;SDS011;65952;51.440;-2.054;2024-03-29T12:38:02;5.00;;;1.92;;
77022;SDS011;65952;51.440;-2.054;2024-03-29T12:40:31;5.53;;;1.95;;
77022;SDS011;65952;51.440;-2.054;2024-03-29T12:43:05;7.80;;;2.17;;
77022;SDS011;65952;51.440;-2.054;2024-03-29T12:45:32;5.60;;;2.00;;
77022;SDS011;65952;51.440;-2.054;2024-03-29T12:47:58;7.90;;;2.20;;
77022;SDS011;65952;51.440;-2.054;2024-03-29T12:56:38;7.65;;;2.15;;
77022;SDS011;65952;51.440;-2.054;2024-03-29T12:59:07;6.70;;;2.15;;
77022;SDS011;65952;51.440;-2.054;2024-03-29T13:01:32;7.25;;;2.40;;
77022;SDS011;65952;51.440;-2.054;2024-03-29T13:03:58;7.95;;;2.10;;
77022;SDS011;65952;51.440;-2.054;2024-03-29T13:06:23;6.47;;;2.08;;
77022;SDS011;65952;51.440;-2.054;2024-03-29T13:11:27;7.38;;;2.40;;
77022;SDS011;65952;51.440;-2.054;2024-03-29T13:14:18;8.90;;;2.10;;
77022;SDS011;65952;51.440;-2.054;2024-03-29T13:17:09;6.50;;;2.20;;
77022;SDS011;65952;51.440;-2.054;2024-03-29T13:22:46;9.20;;;2.40;;
77022;SDS011;65952;51.440;-2.054;2024-03-29T13:25:14;7.88;;;2.13;;
77022;SDS011;65952;51.440;-2.054;2024-03-29T13:27:41;5.22;;;1.90;;
77022;SDS011;65952;51.440;-2.054;2024-03-29T13:30:07;8.68;;;2.38;;
77022;SDS011;65952;51.440;-2.054;2024-03-29T13:32:40;5.93;;;1.90;;
77022;SDS011;65952;51.440;-2.054;2024-03-29T13:35:07;5.82;;;2.00;;
77022;SDS011;65952;51.440;-2.054;2024-03-29T13:37:41;6.75;;;2.10;;
77022;SDS011;65952;51.440;-2.054;2024-03-29T13:40:29;4.88;;;1.80;;
77022;SDS011;65952;51.440;-2.054;2024-03-29T13:43:47;5.07;;;2.28;;
77022;SDS011;65952;51.440;-2.054;2024-03-29T13:46:19;5.47;;;2.28;;
77022;SDS011;65952;51.440;-2.054;2024-03-29T13:48:46;5.78;;;2.47;;
77022;SDS011;65952;51.440;-2.054;2024-03-29T13:51:14;6.20;;;2.00;;
77022;SDS011;65952;51.440;-2.054;2024-03-29T13:54:15;5.13;;;2.08;;
77022;SDS011;65952;51.440;-2.054;2024-03-29T14:00:13;7.65;;;2.05;;
77022;SDS011;65952;51.440;-2.054;2024-03-29T14:03:32;8.13;;;2.13;;
77022;SDS011;65952;51.440;-2.054;2024-03-29T14:06:43;9.02;;;2.42;;
77022;SDS011;65952;51.440;-2.054;2024-03-29T14:10:10;9.15;;;2.17;;
77022;SDS011;65952;51.440;-2.054;2024-03-29T14:16:46;5.72;;;2.30;;
77022;SDS011;65952;51.440;-2.054;2024-03-29T14:19:25;5.65;;;2.28;;
77022;SDS011;65952;51.440;-2.054;2024-03-29T14:21:53;5.32;;;2.30;;
77022;SDS011;65952;51.440;-2.054;2024-03-29T14:24:18;8.73;;;2.20;;
77022;SDS011;65952;51.440;-2.054;2024-03-29T14:26:57;6.63;;;2.25;;
77022;SDS011;65952;51.440;-2.054;2024-03-29T14:30:02;7.75;;;2.20;;
77022;SDS011;65952;51.440;-2.054;2024-03-29T14:32:27;6.85;;;2.15;;
77022;SDS011;65952;51.440;-2.054;2024-03-29T14:34:53;8.18;;;2.10;;
77022;SDS011;65952;51.440;-2.054;2024-03-29T14:37:19;5.65;;;2.20;;
77022;SDS011;65952;51.440;-2.054;2024-03-29T14:39:44;5.47;;;2.05;;
77022;SDS011;65952;51.440;-2.054;2024-03-29T14:42:10;8.27;;;2.10;;
77022;SDS011;65952;51.440;-2.054;2024-03-29T14:44:42;5.15;;;1.88;;
77022;SDS011;65952;51.440;-2.054;2024-03-29T14:47:08;4.47;;;2.05;;
77022;SDS011;65952;51.440;-2.054;2024-03-29T14:49:33;4.68;;;1.85;;
77022;SDS011;65952;51.440;-2.054;2024-03-29T14:52:01;5.88;;;1.90;;
77022;SDS011;65952;51.440;-2.054;2024-03-29T14:54:57;6.15;;;1.77;;
77022;SDS011;65952;51.440;-2.054;2024-03-29T14:58:01;5.38;;;1.73;;
77022;SDS011;65952;51.440;-2.054;2024-03-29T15:00:53;5.20;;;2.00;;
77022;SDS011;65952;51.440;-2.054;2024-03-29T15:06:37;5.90;;;1.85;;
77022;SDS011;65952;51.440;-2.054;2024-03-29T15:09:33;7.03;;;2.03;;
77022;SDS011;65952;51.440;-2.054;2024-03-29T15:12:39;6.18;;;2.25;;
77022;SDS011;65952;51.440;-2.054;2024-03-29T15:15:10;9.38;;;2.00;;
77022;SDS011;65952;51.440;-2.054;2024-03-29T15:17:51;6.72;;;2.08;;
77022;SDS011;65952;51.440;-2.054;2024-03-29T15:20:17;5.07;;;1.95;;
77022;SDS011;65952;51.440;-2.054;2024-03-29T15:22:47;6.05;;;2.08;;
77022;SDS011;65952;51.440;-2.054;2024-03-29T15:25:54;8.18;;;2.08;;
77022;SDS011;65952;51.440;-2.054;2024-03-29T15:28:46;5.05;;;1.90;;
77022;SDS011;65952;51.440;-2.054;2024-03-29T15:31:36;7.75;;;1.95;;
77022;SDS011;65952;51.440;-2.054;2024-03-29T15:34:03;6.18;;;2.50;;
77022;SDS011;65952;51.440;-2.054;2024-03-29T15:36:30;5.82;;;1.90;;
77022;SDS011;65952;51.440;-2.054;2024-03-29T15:38:56;4.68;;;1.80;;
77022;SDS011;65952;51.440;-2.054;2024-03-29T15:41:34;6.47;;;2.10;;
77022;SDS011;65952;51.440;-2.054;2024-03-29T15:44:01;8.73;;;2.10;;
77022;SDS011;65952;51.440;-2.054;2024-03-29T15:46:29;8.82;;;2.00;;
77022;SDS011;65952;51.440;-2.054;2024-03-29T15:48:55;7.88;;;2.10;;
77022;SDS011;65952;51.440;-2.054;2024-03-29T15:51:21;8.90;;;2.28;;
77022;SDS011;65952;51.440;-2.054;2024-03-29T15:53:47;7.78;;;2.00;;
77022;SDS011;65952;51.440;-2.054;2024-03-29T15:56:14;11.05;;;2.30;;
77022;SDS011;65952;51.440;-2.054;2024-03-29T15:58:40;8.93;;;2.13;;
77022;SDS011;65952;51.440;-2.054;2024-03-29T16:01:05;5.63;;;1.90;;
77022;SDS011;65952;51.440;-2.054;2024-03-29T16:03:32;5.57;;;1.98;;
77022;SDS011;65952;51.440;-2.054;2024-03-29T16:05:58;9.65;;;1.95;;
77022;SDS011;65952;51.440;-2.054;2024-03-29T16:08:23;10.77;;;2.08;;
77022;SDS011;65952;51.440;-2.054;2024-03-29T16:10:56;4.97;;;1.77;;
77022;SDS011;65952;51.440;-2.054;2024-03-29T16:15:48;5.60;;;2.00;;
77022;SDS011;65952;51.440;-2.054;2024-03-29T16:18:17;7.53;;;2.10;;
77022;SDS011;65952;51.440;-2.054;2024-03-29T16:20:44;6.28;;;2.40;;
77022;SDS011;65952;51.440;-2.054;2024-03-29T16:23:10;6.90;;;2.65;;
77022;SDS011;65952;51.440;-2.054;2024-03-29T16:25:36;7.68;;;2.10;;
77022;SDS011;65952;51.440;-2.054;2024-03-29T16:28:03;10.75;;;2.38;;
77022;SDS011;65952;51.440;-2.054;2024-03-29T16:30:30;5.47;;;2.15;;
77022;SDS011;65952;51.440;-2.054;2024-03-29T16:32:55;8.15;;;2.25;;
77022;SDS011;65952;51.440;-2.054;2024-03-29T16:35:21;7.75;;;2.28;;
77022;SDS011;65952;51.440;-2.054;2024-03-29T16:37:46;6.93;;;2.00;;